createdAt,value
2023-01-13T00:00:16.694Z,99931.44
2023-01-13T00:02:43.687Z,99928.69
2023-01-13T00:05:11.494Z,99924.47
2023-01-13T00:07:40.228Z,99941.69
2023-01-13T00:10:11.314Z,99940.69
2023-01-13T00:12:44.850Z,99937.78
2023-01-13T00:15:12.001Z,99932.25
2023-01-13T00:17:39.057Z,99924.28
2023-01-13T00:20:07.214Z,99941.25
2023-01-13T00:22:35.206Z,99940.09
2023-01-13T00:25:04.292Z,99937.66
2023-01-13T00:27:31.730Z,99944.34
2023-01-13T00:29:59.254Z,99945.97
2023-01-13T00:32:26.241Z,99954.09
2023-01-13T00:34:53.446Z,99949.47
2023-01-13T00:37:20.624Z,99943.22
2023-01-13T00:39:48.049Z,99943.22
2023-01-13T00:42:33.662Z,99943.94
2023-01-13T00:45:00.567Z,99943.06
2023-01-13T00:47:27.477Z,99932.88
2023-01-13T00:49:54.530Z,99935.88
2023-01-13T00:52:21.517Z,99923.28
2023-01-13T00:54:49.047Z,99929.03
2023-01-13T00:57:16.003Z,99931.00
2023-01-13T00:59:43.055Z,99926.81
2023-01-13T01:02:10.114Z,99917.88
2023-01-13T01:04:37.109Z,99924.50
2023-01-13T01:07:04.074Z,99917.72
2023-01-13T01:09:33.572Z,99920.81
2023-01-13T01:12:01.333Z,99918.44
2023-01-13T01:14:28.368Z,99911.81
2023-01-13T01:16:55.334Z,99924.72
2023-01-13T01:19:22.449Z,99914.47
2023-01-13T01:21:49.974Z,99932.84
2023-01-13T01:24:18.453Z,99923.47
2023-01-13T01:26:45.366Z,99922.25
2023-01-13T01:29:14.685Z,99921.88
2023-01-13T01:31:41.644Z,99920.75
2023-01-13T01:34:08.775Z,99927.28
2023-01-13T01:36:36.729Z,99917.50
2023-01-13T01:39:04.693Z,99921.03
2023-01-13T01:41:33.601Z,99921.47
2023-01-13T01:44:38.318Z,99920.22
2023-01-13T01:47:05.302Z,99913.94
2023-01-13T01:49:35.547Z,99916.69
2023-01-13T01:52:11.432Z,99917.13
2023-01-13T01:54:48.335Z,99910.91
2023-01-13T01:57:24.951Z,99916.09
2023-01-13T01:59:52.081Z,99911.66
2023-01-13T02:02:19.852Z,99907.19
2023-01-13T02:04:51.544Z,99906.19
2023-01-13T02:07:22.686Z,99902.28
2023-01-13T02:09:50.008Z,99892.84
2023-01-13T02:12:32.538Z,99893.13
2023-01-13T02:15:23.056Z,99896.72
2023-01-13T02:18:12.239Z,99895.50
2023-01-13T02:21:05.036Z,99895.59
2023-01-13T02:24:38.627Z,99889.72
2023-01-13T02:27:14.429Z,99875.88
2023-01-13T02:30:23.895Z,99887.69
2023-01-13T02:32:56.706Z,99891.75
2023-01-13T02:35:40.055Z,99878.09
2023-01-13T02:38:10.976Z,99882.78
2023-01-13T02:40:49.580Z,99875.34
2023-01-13T02:43:51.368Z,99884.16
2023-01-13T02:46:27.920Z,99868.66
2023-01-13T02:48:58.026Z,99841.94
2023-01-13T02:51:28.577Z,99860.09
2023-01-13T02:54:02.294Z,99853.81
2023-01-13T02:56:30.376Z,99849.13
2023-01-13T02:58:59.728Z,99845.66
2023-01-13T03:01:27.299Z,99852.44
2023-01-13T03:03:54.386Z,99858.78
2023-01-13T03:06:40.678Z,99854.13
2023-01-13T03:09:18.485Z,99862.09
2023-01-13T03:12:10.391Z,99855.00
2023-01-13T03:14:52.053Z,99851.16
2023-01-13T03:17:32.079Z,99846.53
2023-01-13T03:20:06.998Z,99849.69
2023-01-13T03:22:53.265Z,99843.44
2023-01-13T03:25:28.647Z,99846.16
2023-01-13T03:28:07.005Z,99836.69
2023-01-13T03:30:44.838Z,99844.44
2023-01-13T03:33:36.469Z,99839.59
2023-01-13T03:36:08.682Z,99845.28
2023-01-13T03:38:44.047Z,99845.97
2023-01-13T03:41:19.511Z,99845.84
2023-01-13T03:44:12.911Z,99835.91
2023-01-13T03:46:52.303Z,99837.75
2023-01-13T03:49:24.083Z,99824.34
2023-01-13T03:51:57.233Z,99823.50
2023-01-13T03:54:30.460Z,99815.56
2023-01-13T03:57:02.707Z,99827.69
2023-01-13T03:59:39.066Z,99823.00
2023-01-13T04:02:31.637Z,99828.91
2023-01-13T04:05:01.490Z,99820.31
2023-01-13T04:07:46.825Z,99815.63
2023-01-13T04:10:20.043Z,99809.63
2023-01-13T04:13:16.524Z,99813.63
2023-01-13T04:15:46.246Z,99822.00
2023-01-13T04:18:14.922Z,99812.25
2023-01-13T04:20:43.478Z,99804.81
2023-01-13T04:23:11.005Z,99805.25
2023-01-13T04:25:38.020Z,99803.78
2023-01-13T04:28:05.303Z,99804.25
2023-01-13T04:30:32.721Z,99802.00
2023-01-13T04:32:59.575Z,99811.81
2023-01-13T04:35:26.412Z,99806.75
2023-01-13T04:37:53.404Z,99802.47
2023-01-13T04:40:20.403Z,99804.47
2023-01-13T04:42:47.473Z,99801.38
2023-01-13T04:45:15.224Z,99800.66
2023-01-13T04:47:42.063Z,99798.31
2023-01-13T04:50:10.377Z,99797.53
2023-01-13T04:52:38.474Z,99790.09
2023-01-13T04:55:06.362Z,99793.63
2023-01-13T04:57:35.021Z,99801.88
2023-01-13T05:00:02.233Z,99793.28
2023-01-13T05:02:29.114Z,99797.25
2023-01-13T05:04:56.036Z,99789.34
2023-01-13T05:07:23.015Z,99790.56
2023-01-13T05:09:50.041Z,99804.34
2023-01-13T05:12:35.726Z,99781.97
2023-01-13T05:15:21.609Z,99791.81
2023-01-13T05:17:50.076Z,99795.28
2023-01-13T05:20:19.037Z,99787.41
2023-01-13T05:23:04.722Z,99791.75
2023-01-13T05:25:31.751Z,99778.75
2023-01-13T05:27:59.991Z,99784.25
2023-01-13T05:30:30.361Z,99778.38
2023-01-13T05:32:57.354Z,99792.53
2023-01-13T05:35:24.473Z,99788.63
2023-01-13T05:37:51.702Z,99790.22
2023-01-13T05:40:38.634Z,99786.66
2023-01-13T05:43:20.814Z,99782.34
2023-01-13T05:45:49.715Z,99771.75
2023-01-13T05:48:18.422Z,99771.75
2023-01-13T05:50:46.374Z,99762.69
2023-01-13T05:53:13.862Z,99776.84
2023-01-13T05:55:41.274Z,99791.38
2023-01-13T05:58:09.633Z,99787.81
2023-01-13T06:00:36.708Z,99796.75
2023-01-13T06:03:04.572Z,99787.91
2023-01-13T06:05:32.656Z,99780.22
2023-01-13T06:08:00.950Z,99791.19
2023-01-13T06:10:28.822Z,99785.78
2023-01-13T06:12:56.563Z,99789.00
2023-01-13T06:15:23.985Z,99785.13
2023-01-13T06:17:50.832Z,99787.84
2023-01-13T06:20:18.312Z,99774.13
2023-01-13T06:22:51.144Z,99777.63
2023-01-13T06:25:39.754Z,99782.31
2023-01-13T06:28:06.712Z,99778.41
2023-01-13T06:30:39.987Z,99786.25
2023-01-13T06:33:12.734Z,99793.41
2023-01-13T06:35:43.904Z,99801.25
2023-01-13T06:38:16.019Z,99792.22
2023-01-13T06:40:43.846Z,99783.97
2023-01-13T06:43:17.641Z,99801.50
2023-01-13T06:45:52.424Z,99799.09
2023-01-13T06:48:35.814Z,99799.41
2023-01-13T06:51:05.085Z,99814.13
2023-01-13T06:53:32.035Z,99801.81
2023-01-13T06:55:59.524Z,99816.97
2023-01-13T06:58:26.443Z,99803.16
2023-01-13T07:00:53.745Z,99801.94
2023-01-13T07:03:20.841Z,99790.03
2023-01-13T07:05:55.726Z,99794.69
2023-01-13T07:08:24.125Z,99795.91
2023-01-13T07:10:51.488Z,99804.16
2023-01-13T07:13:38.219Z,99794.78
2023-01-13T07:16:07.479Z,99797.16
2023-01-13T07:18:35.370Z,99794.44
2023-01-13T07:21:06.119Z,99792.09
2023-01-13T07:23:36.074Z,99800.75
2023-01-13T07:26:03.642Z,99799.22
2023-01-13T07:28:31.828Z,99804.44
2023-01-13T07:30:59.174Z,99802.50
2023-01-13T07:33:26.237Z,99798.56
2023-01-13T07:36:05.393Z,99800.16
2023-01-13T07:38:33.920Z,99794.38
2023-01-13T07:41:20.744Z,99793.66
2023-01-13T07:43:49.588Z,99792.13
2023-01-13T07:46:17.346Z,99798.84
2023-01-13T07:48:47.016Z,99805.91
2023-01-13T07:51:14.760Z,99804.03
2023-01-13T07:53:41.623Z,99798.22
2023-01-13T07:56:09.301Z,99804.91
2023-01-13T07:58:37.250Z,99805.78
2023-01-13T08:01:09.329Z,99805.47
2023-01-13T08:03:36.404Z,99807.88
2023-01-13T08:06:03.426Z,99821.22
2023-01-13T08:08:30.493Z,99806.75
2023-01-13T08:11:01.711Z,99822.06
2023-01-13T08:13:29.160Z,99811.50
2023-01-13T08:16:01.924Z,99815.13
2023-01-13T08:18:29.626Z,99819.81
2023-01-13T08:20:56.454Z,99812.78
2023-01-13T08:23:23.685Z,99815.53
2023-01-13T08:25:50.684Z,99822.63
2023-01-13T08:28:18.414Z,99816.72
2023-01-13T08:30:45.690Z,99823.69
2023-01-13T08:33:13.353Z,99825.97
2023-01-13T08:35:41.597Z,99821.22
2023-01-13T08:38:09.304Z,99834.50
2023-01-13T08:40:36.821Z,99830.91
2023-01-13T08:43:03.908Z,99849.31
2023-01-13T08:45:31.025Z,99837.84
2023-01-13T08:47:58.064Z,99850.59
2023-01-13T08:50:25.077Z,99865.25
2023-01-13T08:52:52.050Z,99843.97
2023-01-13T08:55:19.928Z,99848.16
2023-01-13T08:57:46.919Z,99858.34
2023-01-13T09:00:14.712Z,99877.91
2023-01-13T09:02:41.634Z,99859.44
2023-01-13T09:05:10.473Z,99855.09
2023-01-13T09:07:38.557Z,99870.81
2023-01-13T09:10:07.822Z,99874.38
2023-01-13T09:12:53.303Z,99878.72
2023-01-13T09:15:21.600Z,99879.56
2023-01-13T09:17:48.698Z,99879.06
2023-01-13T09:20:16.106Z,99884.47
2023-01-13T09:22:43.069Z,99879.34
2023-01-13T09:25:10.391Z,99888.38
2023-01-13T09:27:37.355Z,99889.59
2023-01-13T09:30:05.343Z,99895.88
2023-01-13T09:32:32.877Z,99893.91
2023-01-13T09:35:03.084Z,99890.81
2023-01-13T09:37:34.388Z,99896.38
2023-01-13T09:40:02.691Z,99895.22
2023-01-13T09:42:54.018Z,99893.25
2023-01-13T09:45:23.295Z,99898.41
2023-01-13T09:48:13.091Z,99905.25
2023-01-13T09:50:58.801Z,99904.97
2023-01-13T09:53:30.547Z,99912.63
2023-01-13T09:55:57.539Z,99912.06
2023-01-13T09:58:25.306Z,99902.00
2023-01-13T10:01:20.242Z,99921.78
2023-01-13T10:03:49.964Z,99925.78
2023-01-13T10:06:50.189Z,99922.31
2023-01-13T10:09:27.058Z,99924.25
2023-01-13T10:12:16.727Z,99925.47
2023-01-13T10:14:54.562Z,99927.91
2023-01-13T10:17:28.361Z,99930.66
2023-01-13T10:20:04.282Z,99928.63
2023-01-13T10:22:42.191Z,99931.38
2023-01-13T10:25:32.485Z,99936.19
2023-01-13T10:28:08.728Z,99948.56
2023-01-13T10:30:40.362Z,99946.69
2023-01-13T10:33:28.179Z,99953.81
2023-01-13T10:36:02.853Z,99961.72
2023-01-13T10:38:35.779Z,99957.38
2023-01-13T10:41:06.515Z,99953.81
2023-01-13T10:43:33.412Z,99955.41
2023-01-13T10:46:11.172Z,99958.66
2023-01-13T10:48:42.276Z,99964.97
2023-01-13T10:51:22.140Z,99968.09
2023-01-13T10:53:53.549Z,99972.72
2023-01-13T10:56:22.040Z,99971.72
2023-01-13T10:58:50.077Z,99978.50
2023-01-13T11:01:26.353Z,99990.31
2023-01-13T11:03:54.900Z,99985.19
2023-01-13T11:06:26.180Z,99996.13
2023-01-13T11:08:55.703Z,100011.09
2023-01-13T11:11:55.985Z,99992.41
2023-01-13T11:14:41.767Z,99989.72
2023-01-13T11:17:23.985Z,99989.66
2023-01-13T11:19:58.568Z,99993.63
2023-01-13T11:22:40.095Z,100001.97
2023-01-13T11:25:14.090Z,99992.28
2023-01-13T11:27:48.897Z,99999.84
2023-01-13T11:30:37.053Z,100000.69
2023-01-13T11:33:10.035Z,100014.63
2023-01-13T11:36:20.617Z,99992.78
2023-01-13T11:38:55.056Z,100012.13
2023-01-13T11:42:13.969Z,99998.91
2023-01-13T11:45:05.380Z,100004.06
2023-01-13T11:47:35.135Z,100019.34
2023-01-13T11:50:03.173Z,100027.19
2023-01-13T11:52:49.578Z,100013.09
2023-01-13T11:55:45.679Z,100018.34
2023-01-13T11:58:54.169Z,100022.66
2023-01-13T12:01:33.411Z,100029.16
2023-01-13T12:04:20.619Z,100045.31
2023-01-13T12:06:58.963Z,100042.13
2023-01-13T12:09:45.935Z,100056.47
2023-01-13T12:12:23.472Z,100058.47
2023-01-13T12:15:21.457Z,100045.56
2023-01-13T12:18:25.664Z,100052.44
2023-01-13T12:21:19.139Z,100064.00
2023-01-13T12:24:09.511Z,100053.44
2023-01-13T12:26:43.768Z,100055.31
2023-01-13T12:29:10.609Z,100050.97
2023-01-13T12:31:40.131Z,100054.50
2023-01-13T12:34:07.030Z,100079.25
2023-01-13T12:36:56.208Z,100077.91
2023-01-13T12:39:57.897Z,100089.13
2023-01-13T12:42:50.705Z,100071.94
2023-01-13T12:45:32.057Z,100089.88
2023-01-13T12:48:00.713Z,100085.44
2023-01-13T12:50:29.309Z,100092.44
2023-01-13T12:52:56.167Z,100104.97
2023-01-13T12:55:24.931Z,100100.88
2023-01-13T12:58:10.136Z,100105.50
2023-01-13T13:01:06.951Z,100105.69
2023-01-13T13:03:35.430Z,100107.84
2023-01-13T13:06:19.417Z,100125.44
2023-01-13T13:09:21.417Z,100135.50
2023-01-13T13:11:58.726Z,100115.22
2023-01-13T13:14:57.576Z,100124.13
2023-01-13T13:17:31.994Z,100126.25
2023-01-13T13:20:00.267Z,100127.34
2023-01-13T13:22:27.102Z,100122.28
2023-01-13T13:25:00.180Z,100125.91
2023-01-13T13:28:06.300Z,100125.59
2023-01-13T13:30:39.900Z,100131.16
2023-01-13T13:33:25.014Z,100135.63
2023-01-13T13:36:27.719Z,100142.41
2023-01-13T13:39:42.244Z,100152.81
2023-01-13T13:42:44.211Z,100162.94
2023-01-13T13:45:40.086Z,100171.41
2023-01-13T13:48:31.260Z,100169.31
2023-01-13T13:51:02.941Z,100169.72
2023-01-13T13:53:40.317Z,100178.03
2023-01-13T13:56:21.822Z,100187.78
2023-01-13T13:58:50.778Z,100198.03
2023-01-13T14:01:29.560Z,100212.50
2023-01-13T14:04:05.652Z,100218.31
2023-01-13T14:06:32.958Z,100200.00
2023-01-13T14:08:59.899Z,100206.94
2023-01-13T14:11:33.532Z,100209.28
2023-01-13T14:14:05.776Z,100210.13
2023-01-13T14:16:36.287Z,100209.91
2023-01-13T14:19:03.690Z,100229.66
2023-01-13T14:21:31.675Z,100231.31
2023-01-13T14:24:11.804Z,100241.38
2023-01-13T14:26:39.395Z,100243.03
2023-01-13T14:29:06.987Z,100242.75
2023-01-13T14:31:34.761Z,100252.22
2023-01-13T14:34:32.017Z,100258.50
2023-01-13T14:36:51.591Z,100261.28
2023-01-13T14:39:19.200Z,100264.66
2023-01-13T14:41:48.895Z,100263.50
2023-01-13T14:44:28.568Z,100264.44
2023-01-13T14:46:58.512Z,100280.44
2023-01-13T14:49:37.446Z,100288.91
2023-01-13T14:52:25.822Z,100302.09
2023-01-13T14:54:54.930Z,100301.50
2023-01-13T14:57:31.970Z,100318.97
2023-01-13T15:00:14.185Z,100311.75
2023-01-13T15:02:44.954Z,100315.66
2023-01-13T15:05:19.258Z,100312.91
2023-01-13T15:07:50.902Z,100318.69
2023-01-13T15:10:20.378Z,100328.44
2023-01-13T15:12:50.806Z,100342.91
2023-01-13T15:15:27.915Z,100344.44
2023-01-13T15:17:54.850Z,100350.00
2023-01-13T15:20:24.122Z,100347.78
2023-01-13T15:22:52.485Z,100365.13
2023-01-13T15:25:20.263Z,100347.91
2023-01-13T15:27:51.066Z,100360.34
2023-01-13T15:30:26.363Z,100359.41
2023-01-13T15:32:55.342Z,100375.06
2023-01-13T15:35:23.990Z,100377.03
2023-01-13T15:37:51.781Z,100381.47
2023-01-13T15:40:29.845Z,100390.06
2023-01-13T15:43:15.424Z,100404.16
2023-01-13T15:46:01.954Z,100408.06
2023-01-13T15:48:33.158Z,100418.16
2023-01-13T15:51:02.702Z,100423.94
2023-01-13T15:53:30.769Z,100433.88
2023-01-13T15:55:59.183Z,100442.25
2023-01-13T15:58:28.442Z,100446.81
2023-01-13T16:00:55.856Z,100445.03
2023-01-13T16:03:23.038Z,100454.56
2023-01-13T16:05:50.020Z,100447.03
2023-01-13T16:08:23.223Z,100460.75
2023-01-13T16:10:50.828Z,100460.97
2023-01-13T16:13:18.794Z,100474.00
2023-01-13T16:15:49.368Z,100483.38
2023-01-13T16:18:21.842Z,100490.59
2023-01-13T16:20:53.160Z,100492.72
2023-01-13T16:23:20.401Z,100482.78
2023-01-13T16:25:47.954Z,100508.75
2023-01-13T16:28:24.144Z,100518.81
2023-01-13T16:30:51.913Z,100504.44
2023-01-13T16:33:19.181Z,100521.53
2023-01-13T16:36:10.842Z,100518.69
2023-01-13T16:38:33.361Z,100531.16
2023-01-13T16:41:00.677Z,100517.72
2023-01-13T16:43:27.849Z,100528.59
2023-01-13T16:45:55.138Z,100522.47
2023-01-13T16:48:23.051Z,100539.22
2023-01-13T16:50:50.010Z,100532.28
2023-01-13T16:53:17.110Z,100546.47
2023-01-13T16:55:45.173Z,100556.13
2023-01-13T16:58:20.795Z,100556.38
2023-01-13T17:00:48.331Z,100556.03
2023-01-13T17:03:16.615Z,100567.56
2023-01-13T17:05:46.970Z,100569.63
2023-01-13T17:08:18.997Z,100581.06
2023-01-13T17:10:46.879Z,100571.88
2023-01-13T17:13:16.743Z,100578.94
2023-01-13T17:15:46.047Z,100589.13
2023-01-13T17:18:13.632Z,100599.88
2023-01-13T17:20:41.347Z,100599.09
2023-01-13T17:23:08.615Z,100604.22
2023-01-13T17:25:35.667Z,100600.91
2023-01-13T17:28:02.853Z,100607.88
2023-01-13T17:30:30.123Z,100608.00
2023-01-13T17:32:57.007Z,100608.88
2023-01-13T17:35:24.949Z,100617.38
2023-01-13T17:37:53.563Z,100615.75
2023-01-13T17:40:21.002Z,100625.16
2023-01-13T17:42:48.114Z,100630.06
2023-01-13T17:45:16.583Z,100631.34
2023-01-13T17:47:43.688Z,100641.28
2023-01-13T17:50:11.146Z,100630.97
2023-01-13T17:52:38.452Z,100635.34
2023-01-13T17:55:05.854Z,100644.94
2023-01-13T17:57:34.505Z,100643.53
2023-01-13T18:00:01.765Z,100660.47
2023-01-13T18:02:39.243Z,100656.88
2023-01-13T18:05:06.597Z,100649.56
2023-01-13T18:07:33.503Z,100664.91
2023-01-13T18:10:00.469Z,100669.22
2023-01-13T18:12:27.507Z,100679.31
2023-01-13T18:14:54.403Z,100677.59
2023-01-13T18:17:21.584Z,100684.59
2023-01-13T18:20:08.437Z,100684.47
2023-01-13T18:22:53.842Z,100694.88
2023-01-13T18:25:39.578Z,100698.34
2023-01-13T18:28:06.511Z,100709.97
2023-01-13T18:30:33.441Z,100702.88
2023-01-13T18:33:00.543Z,100713.06
2023-01-13T18:35:27.651Z,100715.25
2023-01-13T18:37:54.782Z,100709.31
2023-01-13T18:40:22.017Z,100722.09
2023-01-13T18:42:53.814Z,100724.03
2023-01-13T18:45:30.179Z,100725.09
2023-01-13T18:48:00.482Z,100737.34
2023-01-13T18:50:28.376Z,100735.28
2023-01-13T18:52:56.007Z,100729.09
2023-01-13T18:55:23.826Z,100727.28
2023-01-13T18:57:51.472Z,100740.78
2023-01-13T19:00:20.453Z,100742.97
2023-01-13T19:02:48.538Z,100740.66
2023-01-13T19:05:15.718Z,100747.06
2023-01-13T19:07:46.362Z,100754.19
2023-01-13T19:10:13.389Z,100768.34
2023-01-13T19:12:40.559Z,100766.16
2023-01-13T19:15:08.906Z,100774.53
2023-01-13T19:17:36.092Z,100768.69
2023-01-13T19:20:05.427Z,100779.78
2023-01-13T19:22:34.346Z,100779.09
2023-01-13T19:25:03.080Z,100820.78
2023-01-13T19:27:31.041Z,100841.09
2023-01-13T19:30:00.656Z,100842.28
2023-01-13T19:32:30.733Z,100832.41
2023-01-13T19:34:59.791Z,100845.28
2023-01-13T19:37:31.717Z,100853.00
2023-01-13T19:39:59.921Z,100863.16
2023-01-13T19:42:46.321Z,100855.94
2023-01-13T19:45:28.261Z,100855.81
2023-01-13T19:47:57.452Z,100870.31
2023-01-13T19:50:25.057Z,100868.25
2023-01-13T19:52:52.128Z,100882.75
2023-01-13T19:55:20.228Z,100871.44
2023-01-13T19:57:47.993Z,100865.50
2023-01-13T20:00:20.610Z,100863.88
2023-01-13T20:02:49.839Z,100862.75
2023-01-13T20:05:22.120Z,100851.06
2023-01-13T20:07:50.861Z,100858.88
2023-01-13T20:10:20.575Z,100863.84
2023-01-13T20:12:48.294Z,100870.44
2023-01-13T20:15:15.622Z,100876.00
2023-01-13T20:17:42.785Z,100883.94
2023-01-13T20:20:12.058Z,100887.13
2023-01-13T20:22:40.073Z,100892.41
2023-01-13T20:25:09.422Z,100907.03
2023-01-13T20:27:36.571Z,100904.91
2023-01-13T20:30:05.566Z,100902.75
2023-01-13T20:32:32.762Z,100910.09
2023-01-13T20:34:59.690Z,100905.09
2023-01-13T20:37:27.082Z,100915.88
2023-01-13T20:39:55.418Z,100914.03
2023-01-13T20:42:32.230Z,100927.91
2023-01-13T20:45:00.634Z,100931.13
2023-01-13T20:47:29.298Z,100927.22
2023-01-13T20:49:56.624Z,100933.88
2023-01-13T20:52:23.970Z,100933.72
2023-01-13T20:54:50.890Z,100938.72
2023-01-13T20:57:18.181Z,100943.75
2023-01-13T20:59:45.686Z,100946.34
2023-01-13T21:02:15.297Z,100946.56
2023-01-13T21:04:42.452Z,100957.84
2023-01-13T21:07:10.337Z,100951.59
2023-01-13T21:09:37.458Z,100955.78
2023-01-13T21:12:24.722Z,100958.50
2023-01-13T21:15:10.524Z,100960.94
2023-01-13T21:17:56.380Z,100968.16
2023-01-13T21:20:23.577Z,100978.81
2023-01-13T21:22:50.419Z,100966.06
2023-01-13T21:25:19.276Z,100977.31
2023-01-13T21:27:46.567Z,100978.41
2023-01-13T21:30:15.664Z,100992.06
2023-01-13T21:32:44.368Z,100992.31
2023-01-13T21:35:12.323Z,100998.28
2023-01-13T21:37:42.220Z,100993.94
2023-01-13T21:40:12.367Z,101011.19
2023-01-13T21:42:58.229Z,100999.41
2023-01-13T21:45:43.895Z,101010.59
2023-01-13T21:48:11.199Z,101013.88
2023-01-13T21:50:38.555Z,101020.88
2023-01-13T21:53:07.423Z,101023.66
2023-01-13T21:55:36.671Z,101012.75
2023-01-13T21:58:12.878Z,101019.53
2023-01-13T22:00:42.520Z,101006.38
2023-01-13T22:03:11.508Z,101006.41
2023-01-13T22:05:39.036Z,101006.94
2023-01-13T22:08:06.702Z,101006.66
2023-01-13T22:10:34.374Z,101014.53
2023-01-13T22:13:22.476Z,101025.16
2023-01-13T22:15:49.653Z,101026.13
2023-01-13T22:18:18.752Z,101028.81
2023-01-13T22:20:46.246Z,101043.44
2023-01-13T22:23:13.616Z,101044.19
2023-01-13T22:25:40.592Z,101037.66
2023-01-13T22:28:09.555Z,101046.19
2023-01-13T22:30:36.850Z,101045.16
2023-01-13T22:33:03.915Z,101047.25
2023-01-13T22:35:30.978Z,101055.41
2023-01-13T22:37:58.753Z,101067.34
2023-01-13T22:40:25.993Z,101067.34
2023-01-13T22:42:52.867Z,101069.75
2023-01-13T22:45:20.006Z,101074.09
2023-01-13T22:47:48.254Z,101071.69
2023-01-13T22:50:18.280Z,101070.28
2023-01-13T22:52:45.317Z,101070.94
2023-01-13T22:55:12.566Z,101073.69
2023-01-13T22:57:47.718Z,101081.25
2023-01-13T23:00:19.554Z,101076.38
2023-01-13T23:02:46.840Z,101084.25
2023-01-13T23:05:14.020Z,101079.25
2023-01-13T23:07:41.437Z,101078.25
2023-01-13T23:10:08.915Z,101087.09
2023-01-13T23:12:35.811Z,101079.00
2023-01-13T23:15:03.529Z,101079.59
2023-01-13T23:17:30.896Z,101086.69
2023-01-13T23:19:57.756Z,101091.06
2023-01-13T23:22:25.291Z,101089.78
2023-01-13T23:24:52.141Z,101090.72
2023-01-13T23:27:19.781Z,101085.38
2023-01-13T23:29:46.764Z,101098.28
2023-01-13T23:32:13.909Z,101101.03
2023-01-13T23:34:40.804Z,101100.09
2023-01-13T23:37:07.818Z,101102.88
2023-01-13T23:39:34.727Z,101098.13
2023-01-13T23:42:01.702Z,101096.09
2023-01-13T23:44:29.578Z,101098.59
2023-01-13T23:46:56.520Z,101104.78
2023-01-13T23:49:23.487Z,101106.09
2023-01-13T23:51:51.554Z,101101.13
2023-01-13T23:54:19.991Z,101104.22
2023-01-13T23:56:50.557Z,101119.88
2023-01-13T23:59:17.541Z,101110.38
